Terminal Aerodrome Forecast
Issued by NWS

Home | Current Version | Previous Version | Text Only | Print | Product List | Glossary Off
Versions: 1 2 3 4 5 6 7 8 9 10 11 12 13 14 15 16 17

000
FTUS43 KTOP 230500
TAFFOE
TAF
KFOE 230520Z 2306/2406 09003KT P6SM SCT100
     FM231400 13010KT P6SM BKN060 PROB30 2404/2406 -TSRA OVC040CB=

USA.gov is the U.S. government's official web portal to all federal, state and local government web resources and services.